createdAt,value
2022-08-08T00:00:54.655Z,11.07
2022-08-08T00:06:34.884Z,10.32
2022-08-08T00:12:41.503Z,10.30
2022-08-08T00:18:56.937Z,10.88
2022-08-08T00:25:03.923Z,11.15
2022-08-08T00:32:20.454Z,12.60
2022-08-08T00:37:47.315Z,11.45
2022-08-08T00:44:18.556Z,12.95
2022-08-08T00:50:48.113Z,10.52
2022-08-08T00:57:19.670Z,11.60
2022-08-08T01:03:59.583Z,12.88
2022-08-08T01:10:25.241Z,15.13
2022-08-08T01:16:54.572Z,10.77
2022-08-08T01:24:05.558Z,11.45
2022-08-08T01:30:01.703Z,12.90
2022-08-08T01:36:37.341Z,12.32
2022-08-08T01:42:50.150Z,12.55
2022-08-08T01:48:59.057Z,14.00
2022-08-08T01:55:25.516Z,15.80
2022-08-08T02:01:59.619Z,12.20
2022-08-08T02:08:10.214Z,13.57
2022-08-08T02:14:20.536Z,12.27
2022-08-08T02:21:03.011Z,12.05
2022-08-08T02:26:57.974Z,11.13
2022-08-08T02:34:00.556Z,12.18
2022-08-08T02:40:05.807Z,12.18
2022-08-08T02:46:22.176Z,12.43
2022-08-08T02:52:50.902Z,13.82
2022-08-08T02:59:35.875Z,14.75
2022-08-08T03:05:58.386Z,16.77
2022-08-08T03:12:36.749Z,16.38
2022-08-08T03:19:03.493Z,18.27
2022-08-08T03:25:09.206Z,19.52
2022-08-08T03:32:05.334Z,18.70
2022-08-08T03:38:56.694Z,22.20
2022-08-08T03:44:38.406Z,21.75
2022-08-08T03:50:48.642Z,19.40
2022-08-08T03:56:52.346Z,18.13
2022-08-08T04:03:00.366Z,20.73
2022-08-08T04:09:10.700Z,20.92
2022-08-08T04:15:15.254Z,20.60
2022-08-08T04:21:22.822Z,21.98
2022-08-08T04:28:02.478Z,23.80
2022-08-08T04:33:50.528Z,21.90
2022-08-08T04:40:06.803Z,23.77
2022-08-08T04:46:11.633Z,23.00
2022-08-08T04:52:18.650Z,22.73
2022-08-08T04:58:23.691Z,33.83
2022-08-08T05:04:27.951Z,39.42
2022-08-08T05:10:31.626Z,45.75
2022-08-08T05:16:52.891Z,40.13
2022-08-08T05:23:01.840Z,27.42
2022-08-08T05:29:08.318Z,22.92
2022-08-08T05:35:16.104Z,22.83
2022-08-08T05:41:23.369Z,20.35
2022-08-08T05:47:41.510Z,21.58
2022-08-08T05:54:25.515Z,19.02
2022-08-08T06:00:22.862Z,23.10
2022-08-08T06:06:32.504Z,18.08
2022-08-08T06:12:46.011Z,19.50
2022-08-08T06:18:53.649Z,16.70
2022-08-08T06:24:58.111Z,16.85
2022-08-08T06:31:03.982Z,18.17
2022-08-08T06:37:24.203Z,17.15
2022-08-08T06:43:34.416Z,20.23
2022-08-08T06:49:55.043Z,17.17
2022-08-08T06:56:02.926Z,15.35
2022-08-08T07:02:26.942Z,12.93
2022-08-08T07:08:36.432Z,12.63
2022-08-08T07:14:43.715Z,13.88
2022-08-08T07:20:56.287Z,11.20
2022-08-08T07:27:17.265Z,11.73
2022-08-08T07:33:21.820Z,10.45
2022-08-08T07:39:29.293Z,9.73
2022-08-08T07:45:51.580Z,10.25
2022-08-08T07:51:59.870Z,8.63
2022-08-08T07:58:14.820Z,8.15
2022-08-08T08:04:22.943Z,10.38
2022-08-08T08:10:30.497Z,9.52
2022-08-08T08:16:41.398Z,7.38
2022-08-08T08:22:47.268Z,7.65
2022-08-08T08:28:50.998Z,5.72
2022-08-08T08:34:54.709Z,8.02
2022-08-08T08:41:06.026Z,6.32
2022-08-08T08:47:09.705Z,5.47
2022-08-08T08:53:27.392Z,4.25
2022-08-08T09:00:00.234Z,4.80
2022-08-08T09:06:19.338Z,4.10
2022-08-08T09:12:30.494Z,4.57
2022-08-08T09:18:36.131Z,3.83
2022-08-08T09:24:40.371Z,4.32
2022-08-08T09:30:48.161Z,3.40
2022-08-08T09:37:37.341Z,6.03
2022-08-08T09:44:04.672Z,4.50
2022-08-08T09:49:53.552Z,7.47
2022-08-08T09:56:05.811Z,4.82
2022-08-08T10:02:14.884Z,3.25
2022-08-08T10:08:21.159Z,3.13
2022-08-08T10:14:38.210Z,3.65
2022-08-08T10:20:57.912Z,5.10
2022-08-08T10:27:03.013Z,3.72
2022-08-08T10:33:12.359Z,5.57
2022-08-08T10:39:23.261Z,6.00
2022-08-08T10:45:57.296Z,3.17
2022-08-08T10:52:03.666Z,5.85
2022-08-08T10:58:08.579Z,6.32
2022-08-08T11:04:12.160Z,4.40
2022-08-08T11:10:19.466Z,3.92
2022-08-08T11:16:32.985Z,2.90
2022-08-08T11:22:38.152Z,3.05
2022-08-08T11:28:43.787Z,6.15
2022-08-08T11:41:12.500Z,5.50
2022-08-08T11:47:18.973Z,2.17
2022-08-08T11:53:24.631Z,2.45
2022-08-08T11:59:58.241Z,5.57
2022-08-08T12:06:00.077Z,3.08
2022-08-08T12:12:04.265Z,3.03
2022-08-08T12:18:14.973Z,4.03
2022-08-08T12:24:27.611Z,3.63
2022-08-08T12:30:32.407Z,4.97
2022-08-08T12:36:46.537Z,3.97
2022-08-08T12:42:55.642Z,15.38
2022-08-08T12:49:25.803Z,11.18
2022-08-08T12:55:29.377Z,8.95
2022-08-08T13:01:53.410Z,6.38
2022-08-08T13:08:03.558Z,7.20
2022-08-08T13:14:11.348Z,5.07
2022-08-08T13:20:18.192Z,2.63
2022-08-08T13:26:21.914Z,5.57
2022-08-08T13:32:29.137Z,3.85
2022-08-08T13:38:34.123Z,9.40
2022-08-08T13:44:38.809Z,3.25
2022-08-08T13:50:49.192Z,3.10
2022-08-08T13:57:08.809Z,4.28
2022-08-08T14:03:52.354Z,4.50
2022-08-08T14:10:02.375Z,9.82
2022-08-08T14:16:16.003Z,6.47
2022-08-08T14:22:22.183Z,4.93
2022-08-08T14:28:28.957Z,5.28
2022-08-08T14:34:34.676Z,3.22
2022-08-08T14:40:41.207Z,12.02
2022-08-08T14:47:01.006Z,4.45
2022-08-08T14:53:06.876Z,7.38
2022-08-08T14:59:22.338Z,4.88
2022-08-08T15:05:52.168Z,2.13
2022-08-08T15:11:59.602Z,3.83
2022-08-08T15:18:03.880Z,3.63
2022-08-08T15:24:12.659Z,3.25
2022-08-08T15:30:18.938Z,3.22
2022-08-08T15:36:28.424Z,3.90
2022-08-08T15:42:33.130Z,2.35
2022-08-08T15:48:38.068Z,3.58
2022-08-08T15:54:41.777Z,4.63
2022-08-08T16:00:50.748Z,2.80
2022-08-08T16:06:56.094Z,2.60
2022-08-08T16:13:28.553Z,2.53
2022-08-08T16:19:24.379Z,2.70
2022-08-08T16:25:45.735Z,2.75
2022-08-08T16:31:52.563Z,1.73
2022-08-08T16:37:56.302Z,1.63
2022-08-08T16:44:01.121Z,2.45
2022-08-08T16:50:11.113Z,1.75
2022-08-08T16:56:16.727Z,5.13
2022-08-08T17:02:32.673Z,5.30
2022-08-08T17:08:42.749Z,3.30
2022-08-08T17:14:47.075Z,4.00
2022-08-08T17:20:51.892Z,2.55
2022-08-08T17:26:58.086Z,3.67
2022-08-08T17:34:35.237Z,1.88
2022-08-08T17:40:04.656Z,2.20
2022-08-08T17:45:50.691Z,2.20
2022-08-08T17:51:55.740Z,3.22
2022-08-08T17:58:02.085Z,1.90
2022-08-08T18:04:05.668Z,3.25
2022-08-08T18:10:14.631Z,4.10
2022-08-08T18:16:23.489Z,3.85
2022-08-08T18:22:50.381Z,2.40
2022-08-08T18:28:54.264Z,2.25
2022-08-08T18:35:00.188Z,3.40
2022-08-08T18:41:03.595Z,2.63
2022-08-08T18:47:08.698Z,4.40
2022-08-08T18:53:15.450Z,2.78
2022-08-08T18:59:19.637Z,3.90
2022-08-08T19:05:34.141Z,5.45
2022-08-08T19:11:40.011Z,5.35
2022-08-08T19:18:33.133Z,3.78
2022-08-08T19:24:33.962Z,4.85
2022-08-08T19:30:39.260Z,7.97
2022-08-08T19:36:58.707Z,4.45
2022-08-08T19:43:02.423Z,5.85
2022-08-08T19:49:07.128Z,4.45
2022-08-08T19:55:14.466Z,3.80
2022-08-08T20:01:21.453Z,4.20
2022-08-08T20:08:29.112Z,4.80
2022-08-08T20:14:12.559Z,5.43
2022-08-08T20:20:19.757Z,5.32
2022-08-08T20:26:27.499Z,5.03
2022-08-08T20:32:36.945Z,4.65
2022-08-08T20:38:41.677Z,4.03
2022-08-08T20:44:49.025Z,3.97
2022-08-08T20:50:53.478Z,4.30
2022-08-08T20:57:04.855Z,8.38
2022-08-08T21:03:22.424Z,3.55
2022-08-08T21:09:31.490Z,3.83
2022-08-08T21:16:05.204Z,3.88
2022-08-08T21:22:01.662Z,5.07
2022-08-08T21:28:16.040Z,4.32
2022-08-08T21:34:20.198Z,3.90
2022-08-08T21:40:31.538Z,3.50
2022-08-08T21:48:03.646Z,3.83
2022-08-08T21:54:27.304Z,4.43
2022-08-08T21:59:23.599Z,3.95
2022-08-08T22:05:27.268Z,4.63
2022-08-08T22:11:59.292Z,3.80
2022-08-08T22:17:57.840Z,3.88
2022-08-08T22:24:01.248Z,5.35
2022-08-08T22:30:06.327Z,5.07
2022-08-08T22:36:19.928Z,4.28
2022-08-08T22:42:36.333Z,10.55
2022-08-08T22:48:39.736Z,5.00
2022-08-08T22:54:58.735Z,5.60
2022-08-08T23:02:01.314Z,4.68
2022-08-08T23:07:50.981Z,5.55
2022-08-08T23:14:01.154Z,5.57
2022-08-08T23:20:05.905Z,6.57
2022-08-08T23:26:09.503Z,5.90
2022-08-08T23:32:19.456Z,7.22
2022-08-08T23:38:24.105Z,6.43
2022-08-08T23:44:28.505Z,5.70
2022-08-08T23:50:33.238Z,7.40
2022-08-08T23:56:36.938Z,8.45
